Time;durP1;ratioP1;P1;durP2;ratioP2;P2;SDS_P1;SDS_P2;PMS_P1;PMS_P2;Temp;Humidity;BMP_temperature;BMP_pressure;BME280_temperature;BME280_humidity;BME280_pressure;Samples;Min_cycle;Max_cycle;Signal;HPM_P1;HPM_P2
2024/02/12 00:01:45;;;;;;;;;;;8.50;99.90;;;;;;5243515;23;20063;-78
2024/02/12 00:04:24;;;;;;;;;;;;;;;;;;;;;
2024/02/12 00:06:50;;;;;;;;;;;8.50;99.90;;;;;;5039677;28;19939;-77
2024/02/12 00:09:20;;;;;;;;;;;8.50;99.90;;;;;;5006867;28;19913;-77
2024/02/12 00:11:50;;;;;;;;;;;8.50;99.90;;;;;;5048640;28;19916;-78
2024/02/12 00:14:19;;;;;;;;;;;8.50;99.90;;;;;;5039964;28;19916;-77
2024/02/12 00:16:45;;;;;;;;;;;8.40;99.90;;;;;;5041890;28;19916;-77
2024/02/12 00:19:17;;;;;;;;;;;8.40;99.90;;;;;;5055376;28;19965;-78
2024/02/12 00:21:48;;;;;;;;;;;8.50;99.90;;;;;;5055492;28;20342;-78
2024/02/12 00:24:28;;;;;;;;;;;8.40;99.90;;;;;;5040355;28;19917;-79
2024/02/12 00:27:20;;;;;;;;;;;8.50;99.90;;;;;;5043596;28;19954;-77
2024/02/12 00:29:46;;;;;;;;;;;8.40;99.90;;;;;;5032949;28;19917;-78
2024/02/12 00:32:17;;;;;;;;;;;8.50;99.90;;;;;;5056061;28;19936;-78
2024/02/12 00:34:46;;;;;;;;;;;8.50;99.90;;;;;;5024560;28;19923;-78
2024/02/12 00:37:25;;;;;;;;;;;8.50;99.90;;;;;;5018892;28;20232;-78
2024/02/12 00:40:01;;;;;;;;;;;8.40;99.90;;;;;;5050048;28;20210;-78
2024/02/12 00:42:49;;;;;;;;;;;8.50;99.90;;;;;;5043763;28;19923;-78
2024/02/12 00:45:45;;;;;;;;;;;8.40;99.90;;;;;;5053949;28;19916;-78
2024/02/12 00:48:18;;;;;;;;;;;8.50;99.90;;;;;;5058141;28;19917;-78
2024/02/12 00:50:47;;;;;;;;;;;8.50;99.90;;;;;;5025828;28;20252;-78
2024/02/12 00:53:19;;;;;;;;;;;8.50;99.90;;;;;;5008801;28;19950;-78
2024/02/12 00:55:50;;;;;;;;;;;8.40;99.90;;;;;;5019462;28;19919;-78
2024/02/12 00:58:23;;;;;;;;;;;8.40;99.90;;;;;;5038269;28;19920;-78
2024/02/12 01:00:54;;;;;;;;;;;8.40;99.90;;;;;;5073236;28;19917;-78
2024/02/12 01:03:23;;;;;;;;;;;8.40;99.90;;;;;;5030612;28;20046;-78
2024/02/12 01:06:10;;;;;;;;;;;8.40;99.90;;;;;;5052417;28;20070;-79
2024/02/12 01:08:38;;;;;;;;;;;8.40;99.90;;;;;;5050998;28;19916;-78
2024/02/12 01:11:06;;;;;;;;;;;8.40;99.90;;;;;;5024185;28;20670;-78
2024/02/12 01:13:33;;;;;;;;;;;8.40;99.90;;;;;;5033310;28;19999;-77
2024/02/12 01:16:01;;;;;;;;;;;8.40;99.90;;;;;;5047341;28;19916;-79
2024/02/12 01:18:28;;;;;;;;;;;8.40;99.90;;;;;;5038344;28;19917;-79
2024/02/12 01:20:55;;;;;;;;;;;8.40;99.90;;;;;;5038988;28;19912;-78
2024/02/12 01:23:32;;;;;;;;;;;8.30;99.90;;;;;;5034050;28;19916;-78
2024/02/12 01:26:00;;;;;;;;;;;8.40;99.90;;;;;;5057494;28;19916;-78
2024/02/12 01:28:28;;;;;;;;;;;8.40;99.90;;;;;;5055883;28;20020;-79
2024/02/12 01:31:00;;;;;;;;;;;8.40;99.90;;;;;;5056137;28;19940;-78
2024/02/12 01:33:46;;;;;;;;;;;8.30;99.90;;;;;;5062389;28;20232;-78
2024/02/12 01:36:13;;;;;;;;;;;8.40;99.90;;;;;;5039971;28;19929;-78
2024/02/12 01:38:45;;;;;;;;;;;8.30;99.90;;;;;;5060123;28;19916;-79
2024/02/12 01:41:11;;;;;;;;;;;8.30;99.90;;;;;;5041736;28;19917;-79
2024/02/12 01:43:41;;;;;;;;;;;8.40;99.90;;;;;;5050978;28;19924;-78
2024/02/12 01:46:16;;;;;;;;;;;8.40;99.90;;;;;;5043044;28;20287;-78
2024/02/12 01:49:02;;;;;;;;;;;8.40;99.90;;;;;;5039159;28;19925;-79
2024/02/12 01:51:33;;;;;;;;;;;8.40;99.90;;;;;;5056584;28;19949;-78
2024/02/12 01:54:02;;;;;;;;;;;8.40;99.90;;;;;;5024684;28;19924;-79
2024/02/12 01:56:36;;;;;;;;;;;8.40;99.90;;;;;;5043831;28;20217;-79
2024/02/12 01:59:05;;;;;;;;;;;8.40;99.90;;;;;;5059511;28;19927;-79
2024/02/12 02:01:32;;;;;;;;;;;8.40;99.90;;;;;;5029320;28;20323;-78
2024/02/12 02:03:58;;;;;;;;;;;8.40;99.90;;;;;;5055761;28;19990;-78
2024/02/12 02:06:26;;;;;;;;;;;8.40;99.90;;;;;;5059711;28;19959;-78
2024/02/12 02:08:56;;;;;;;;;;;8.40;99.90;;;;;;5026998;28;19916;-79
2024/02/12 02:11:26;;;;;;;;;;;8.50;99.90;;;;;;5044020;28;19992;-78
2024/02/12 02:13:53;;;;;;;;;;;8.50;99.90;;;;;;5050725;28;20550;-79
2024/02/12 02:16:21;;;;;;;;;;;8.40;99.90;;;;;;5063105;28;19915;-78
2024/02/12 02:18:50;;;;;;;;;;;8.40;99.90;;;;;;5062564;28;20007;-78
2024/02/12 02:21:18;;;;;;;;;;;8.40;99.90;;;;;;5062641;28;20563;-78
2024/02/12 02:23:46;;;;;;;;;;;8.40;99.90;;;;;;5080137;28;19928;-79
2024/02/12 02:26:12;;;;;;;;;;;8.50;99.90;;;;;;5063157;28;19924;-79
2024/02/12 02:28:45;;;;;;;;;;;8.50;99.90;;;;;;5027500;28;19912;-79
2024/02/12 02:31:11;;;;;;;;;;;8.40;99.90;;;;;;5071178;28;19913;-78
2024/02/12 02:33:37;;;;;;;;;;;8.50;99.90;;;;;;5059635;28;19917;-78
2024/02/12 02:36:03;;;;;;;;;;;8.40;99.90;;;;;;5043373;28;19927;-79
2024/02/12 02:38:29;;;;;;;;;;;8.40;99.90;;;;;;5025590;28;20355;-79
2024/02/12 02:40:57;;;;;;;;;;;8.40;99.90;;;;;;5007634;28;19916;-78
2024/02/12 02:43:26;;;;;;;;;;;8.40;99.90;;;;;;5042440;28;20305;-78
2024/02/12 02:45:54;;;;;;;;;;;8.40;99.90;;;;;;5043688;28;19913;-78
2024/02/12 02:48:20;;;;;;;;;;;8.40;99.90;;;;;;5043182;28;20326;-79
2024/02/12 02:50:49;;;;;;;;;;;8.40;99.90;;;;;;5042785;28;19938;-78
2024/02/12 02:53:15;;;;;;;;;;;8.40;99.90;;;;;;5042703;28;20034;-79
2024/02/12 02:55:47;;;;;;;;;;;8.30;99.90;;;;;;5035240;28;20003;-79
2024/02/12 02:58:14;;;;;;;;;;;8.30;99.90;;;;;;5039490;28;19917;-78
2024/02/12 03:00:41;;;;;;;;;;;8.30;99.90;;;;;;5022724;28;19928;-78
2024/02/12 03:03:09;;;;;;;;;;;8.30;99.90;;;;;;5063219;28;19933;-79
2024/02/12 03:05:36;;;;;;;;;;;8.20;99.90;;;;;;5023269;28;19916;-79
2024/02/12 03:08:09;;;;;;;;;;;8.30;99.90;;;;;;5031195;28;19952;-79
2024/02/12 03:10:38;;;;;;;;;;;8.30;99.90;;;;;;5038135;28;19920;-79
2024/02/12 03:13:18;;;;;;;;;;;;;;;;;;;;;
2024/02/12 03:15:47;;;;;;;;;;;8.30;99.90;;;;;;5056302;28;20416;-78
2024/02/12 03:18:19;;;;;;;;;;;8.20;99.90;;;;;;5038953;28;19933;-78
2024/02/12 03:20:45;;;;;;;;;;;8.30;99.90;;;;;;5039494;28;19948;-79
2024/02/12 03:23:30;;;;;;;;;;;8.30;99.90;;;;;;5047844;28;20384;-78
2024/02/12 03:25:58;;;;;;;;;;;8.30;99.90;;;;;;5048705;28;19939;-78
2024/02/12 03:28:24;;;;;;;;;;;8.30;99.90;;;;;;5039018;28;19917;-78
2024/02/12 03:30:50;;;;;;;;;;;8.20;99.90;;;;;;5042889;28;19971;-76
2024/02/12 03:33:20;;;;;;;;;;;8.20;99.90;;;;;;5066981;28;19912;-78
2024/02/12 03:35:53;;;;;;;;;;;8.30;99.90;;;;;;5053316;28;19920;-79
2024/02/12 03:38:24;;;;;;;;;;;8.20;99.90;;;;;;5046336;28;19917;-79
2024/02/12 03:40:49;;;;;;;;;;;8.30;99.90;;;;;;5019155;28;19912;-78
2024/02/12 03:43:17;;;;;;;;;;;8.30;99.90;;;;;;5058934;28;19999;-78
2024/02/12 03:45:46;;;;;;;;;;;8.30;99.90;;;;;;5022385;28;19916;-78
2024/02/12 03:59:50;;;;;;;;;;;8.30;99.90;;;;;;5035643;28;19920;-79
2024/02/12 04:02:01;;;;;;;;;;;8.30;99.90;;;;;;5059754;28;19920;-79
2024/02/12 04:04:27;;;;;;;;;;;8.30;99.90;;;;;;5040952;28;19916;-79
2024/02/12 04:06:56;;;;;;;;;;;8.40;99.90;;;;;;5057917;28;19912;-76
2024/02/12 04:09:22;;;;;;;;;;;8.30;99.90;;;;;;5041508;28;19951;-78
2024/02/12 04:11:49;;;;;;;;;;;8.30;99.90;;;;;;5041560;28;20426;-78
2024/02/12 04:14:15;;;;;;;;;;;8.30;99.90;;;;;;5040662;28;20007;-78
2024/02/12 04:16:42;;;;;;;;;;;8.30;99.90;;;;;;5041067;28;19916;-79
2024/02/12 04:19:10;;;;;;;;;;;8.30;99.90;;;;;;5054376;28;20321;-78
2024/02/12 04:21:38;;;;;;;;;;;8.20;99.90;;;;;;5025597;28;19916;-78
2024/02/12 04:24:04;;;;;;;;;;;8.30;99.90;;;;;;5058262;28;19919;-78
2024/02/12 04:26:33;;;;;;;;;;;8.30;99.90;;;;;;5057295;28;19916;-79
2024/02/12 04:29:00;;;;;;;;;;;8.30;99.90;;;;;;5057689;28;19922;-77
2024/02/12 04:31:28;;;;;;;;;;;8.30;99.90;;;;;;5032210;28;19917;-78
2024/02/12 04:34:13;;;;;;;;;;;8.20;99.90;;;;;;5023717;28;20007;-79
2024/02/12 04:36:44;;;;;;;;;;;8.20;99.90;;;;;;5038841;28;19947;-78
2024/02/12 04:39:14;;;;;;;;;;;8.20;99.90;;;;;;5050329;28;20248;-78
2024/02/12 04:41:59;;;;;;;;;;;8.20;99.90;;;;;;5056592;28;19916;-78
2024/02/12 04:44:25;;;;;;;;;;;8.20;99.90;;;;;;5040536;28;19944;-77
2024/02/12 04:46:51;;;;;;;;;;;8.20;99.90;;;;;;5056101;28;19927;-77
2024/02/12 04:49:19;;;;;;;;;;;8.20;99.90;;;;;;5055885;28;19913;-79
2024/02/12 04:51:46;;;;;;;;;;;8.20;99.90;;;;;;5052841;28;19924;-79
2024/02/12 04:54:12;;;;;;;;;;;8.20;99.90;;;;;;5036710;28;19923;-79
2024/02/12 04:56:38;;;;;;;;;;;8.20;99.90;;;;;;5036469;28;20288;-78
2024/02/12 04:59:12;;;;;;;;;;;8.20;99.90;;;;;;5048080;28;19917;-77
2024/02/12 05:01:39;;;;;;;;;;;8.20;99.90;;;;;;5031393;28;20362;-78
2024/02/12 05:04:05;;;;;;;;;;;8.20;99.90;;;;;;5051554;28;20291;-78
2024/02/12 05:06:33;;;;;;;;;;;8.20;99.90;;;;;;5041325;28;19912;-79
2024/02/12 05:09:04;;;;;;;;;;;8.20;99.90;;;;;;5076936;28;19916;-78
2024/02/12 05:11:33;;;;;;;;;;;8.20;99.90;;;;;;5051606;28;19994;-78
2024/02/12 05:14:09;;;;;;;;;;;8.20;99.90;;;;;;5071717;28;19927;-78
2024/02/12 05:16:35;;;;;;;;;;;8.20;99.90;;;;;;5079782;28;19947;-76
2024/02/12 05:24:30;;;;;;;;;;;8.20;99.90;;;;;;5062796;28;19923;-78
2024/02/12 05:26:56;;;;;;;;;;;8.10;99.90;;;;;;5043638;28;19999;-77
2024/02/12 05:29:23;;;;;;;;;;;8.20;99.90;;;;;;5027351;28;19947;-79
2024/02/12 05:31:50;;;;;;;;;;;8.10;99.90;;;;;;5058116;28;20345;-77
2024/02/12 05:34:24;;;;;;;;;;;8.20;99.90;;;;;;5043972;28;19991;-78
2024/02/12 05:36:51;;;;;;;;;;;8.20;99.90;;;;;;5015448;28;19921;-78
2024/02/12 05:39:17;;;;;;;;;;;8.20;99.90;;;;;;5040131;28;20011;-77
2024/02/12 05:41:42;;;;;;;;;;;8.20;99.90;;;;;;5040323;28;20003;-78
2024/02/12 05:44:08;;;;;;;;;;;8.20;99.90;;;;;;5042077;28;20364;-78
2024/02/12 05:46:34;;;;;;;;;;;8.10;99.90;;;;;;5042854;28;19963;-78
2024/02/12 05:49:00;;;;;;;;;;;8.10;99.90;;;;;;5074327;28;19913;-79
2024/02/12 05:51:28;;;;;;;;;;;8.10;99.90;;;;;;5044265;28;19923;-79
2024/02/12 05:54:01;;;;;;;;;;;8.20;99.90;;;;;;5029795;28;19952;-77
2024/02/12 05:56:31;;;;;;;;;;;8.10;99.90;;;;;;5047042;28;20317;-78
2024/02/12 05:59:06;;;;;;;;;;;8.10;99.90;;;;;;5047087;28;19985;-78
2024/02/12 06:01:35;;;;;;;;;;;8.20;99.90;;;;;;5079626;28;19943;-79
2024/02/12 06:04:03;;;;;;;;;;;8.10;99.90;;;;;;5039167;28;19929;-78
2024/02/12 06:06:31;;;;;;;;;;;8.10;99.90;;;;;;5023714;28;19940;-77
2024/02/12 06:08:57;;;;;;;;;;;8.10;99.90;;;;;;5056419;28;20003;-78
2024/02/12 06:11:25;;;;;;;;;;;8.00;99.90;;;;;;5039794;28;19913;-78
2024/02/12 06:13:51;;;;;;;;;;;8.10;99.90;;;;;;5056316;28;20004;-77
2024/02/12 06:16:16;;;;;;;;;;;8.10;99.90;;;;;;5056502;28;19917;-78
2024/02/12 06:18:43;;;;;;;;;;;8.00;99.90;;;;;;5038456;28;19927;-78
2024/02/12 06:21:11;;;;;;;;;;;8.00;99.90;;;;;;5056062;28;19917;-78
2024/02/12 06:23:38;;;;;;;;;;;8.00;99.90;;;;;;5054265;28;20241;-78
2024/02/12 06:26:03;;;;;;;;;;;8.10;99.90;;;;;;5035852;28;19913;-77
2024/02/12 06:28:29;;;;;;;;;;;8.10;99.90;;;;;;5047051;28;20027;-78
2024/02/12 06:30:56;;;;;;;;;;;8.10;99.90;;;;;;5039501;28;20473;-78
2024/02/12 06:33:21;;;;;;;;;;;8.10;99.90;;;;;;5038504;28;20237;-79
2024/02/12 06:35:47;;;;;;;;;;;8.10;99.90;;;;;;5022325;28;19931;-78
2024/02/12 06:38:29;;;;;;;;;;;8.20;99.90;;;;;;5054916;28;19963;-79
2024/02/12 06:41:09;;;;;;;;;;;8.10;99.90;;;;;;5028628;28;19916;-80
2024/02/12 06:43:35;;;;;;;;;;;8.10;99.90;;;;;;5055797;28;19923;-78
2024/02/12 06:46:01;;;;;;;;;;;8.10;99.90;;;;;;5047752;28;19913;-78
2024/02/12 06:48:27;;;;;;;;;;;8.10;99.90;;;;;;5052528;28;19928;-77
2024/02/12 06:50:58;;;;;;;;;;;8.10;99.90;;;;;;5051833;28;19921;-78
2024/02/12 06:53:24;;;;;;;;;;;8.10;99.90;;;;;;5052096;28;19975;-78
2024/02/12 06:55:50;;;;;;;;;;;8.10;99.90;;;;;;5053962;28;20264;-79
2024/02/12 06:58:16;;;;;;;;;;;8.10;99.90;;;;;;5045976;28;19928;-79
2024/02/12 07:00:56;;;;;;;;;;;8.10;99.90;;;;;;5055435;28;19912;-78
2024/02/12 07:03:22;;;;;;;;;;;8.20;99.90;;;;;;5054851;28;19925;-79
2024/02/12 07:05:47;;;;;;;;;;;8.10;99.90;;;;;;5021768;28;19912;-79
2024/02/12 07:08:18;;;;;;;;;;;8.10;99.90;;;;;;5022491;28;19913;-76
2024/02/12 07:10:44;;;;;;;;;;;8.10;99.90;;;;;;5035774;28;19920;-78
2024/02/12 07:13:12;;;;;;;;;;;8.10;99.90;;;;;;5035532;28;19913;-77
2024/02/12 07:15:41;;;;;;;;;;;8.20;99.90;;;;;;5042718;28;19913;-78
2024/02/12 07:18:09;;;;;;;;;;;8.20;99.90;;;;;;5051597;28;19921;-78
2024/02/12 07:20:39;;;;;;;;;;;8.20;99.90;;;;;;5053421;28;20291;-78
2024/02/12 07:23:06;;;;;;;;;;;8.20;99.90;;;;;;5071441;28;19996;-77
2024/02/12 07:25:37;;;;;;;;;;;8.20;99.90;;;;;;5054492;28;19917;-78
2024/02/12 07:28:08;;;;;;;;;;;8.10;99.90;;;;;;5033237;28;19917;-78
2024/02/12 07:30:45;;;;;;;;;;;8.20;99.90;;;;;;5047342;28;19916;-78
2024/02/12 07:33:13;;;;;;;;;;;8.20;99.90;;;;;;5038755;28;20379;-77
2024/02/12 07:35:39;;;;;;;;;;;8.20;99.90;;;;;;5066979;28;20000;-78
2024/02/12 07:38:12;;;;;;;;;;;8.20;99.90;;;;;;5036800;28;19917;-77
2024/02/12 07:40:40;;;;;;;;;;;8.20;99.90;;;;;;5048809;28;19923;-76
2024/02/12 07:43:05;;;;;;;;;;;8.30;99.90;;;;;;5018983;28;20003;-77
2024/02/12 07:45:33;;;;;;;;;;;8.30;99.90;;;;;;5002029;28;20379;-76
2024/02/12 07:48:00;;;;;;;;;;;8.20;99.90;;;;;;5043904;28;20260;-77
2024/02/12 07:50:29;;;;;;;;;;;8.20;99.90;;;;;;5027370;28;19940;-76
2024/02/12 07:53:13;;;;;;;;;;;8.20;99.90;;;;;;5052559;28;19920;-78
2024/02/12 07:55:44;;;;;;;;;;;8.20;99.90;;;;;;5050222;28;19913;-78
2024/02/12 07:58:14;;;;;;;;;;;8.20;99.90;;;;;;5049370;28;19932;-77
2024/02/12 08:00:42;;;;;;;;;;;8.30;99.90;;;;;;5031442;28;19924;-77
2024/02/12 08:03:11;;;;;;;;;;;8.30;99.90;;;;;;5022018;28;20336;-77
2024/02/12 08:05:42;;;;;;;;;;;8.20;99.90;;;;;;5044224;28;19924;-79
2024/02/12 08:08:08;;;;;;;;;;;8.20;99.90;;;;;;5071163;28;19916;-77
2024/02/12 08:10:36;;;;;;;;;;;8.30;99.90;;;;;;5039420;28;19913;-78
2024/02/12 08:13:21;;;;;;;;;;;8.20;99.90;;;;;;5069309;28;20341;-76
2024/02/12 08:15:49;;;;;;;;;;;8.20;99.90;;;;;;5054742;28;19956;-78
2024/02/12 08:18:19;;;;;;;;;;;8.20;99.90;;;;;;5054283;28;19917;-78
2024/02/12 08:20:47;;;;;;;;;;;8.30;99.90;;;;;;5054389;28;19923;-78
2024/02/12 08:23:13;;;;;;;;;;;8.30;99.90;;;;;;5062892;28;20008;-77
2024/02/12 08:26:11;;;;;;;;;;;;;;;;;;;;;
2024/02/12 08:28:43;;;;;;;;;;;8.30;99.90;;;;;;5024072;28;19943;-81
2024/02/12 08:31:11;;;;;;;;;;;8.30;99.90;;;;;;5021126;28;19975;-79
2024/02/12 08:33:37;;;;;;;;;;;8.30;99.90;;;;;;5019295;28;19913;-80
2024/02/12 08:36:06;;;;;;;;;;;8.30;99.90;;;;;;5035341;28;19924;-79
2024/02/12 08:38:32;;;;;;;;;;;8.30;99.90;;;;;;5040130;28;20356;-79
2024/02/12 08:41:00;;;;;;;;;;;8.30;99.90;;;;;;5016023;28;20322;-79
2024/02/12 08:43:25;;;;;;;;;;;8.30;99.90;;;;;;4984823;28;19963;-79
2024/02/12 08:45:51;;;;;;;;;;;8.30;99.90;;;;;;5016953;28;19913;-80
2024/02/12 08:48:17;;;;;;;;;;;8.30;99.90;;;;;;4993520;28;19923;-80
2024/02/12 08:50:43;;;;;;;;;;;8.30;99.90;;;;;;5028385;28;20008;-80
2024/02/12 08:53:11;;;;;;;;;;;8.20;99.90;;;;;;5008241;28;20226;-79
2024/02/12 08:55:37;;;;;;;;;;;8.30;99.90;;;;;;5027384;28;19979;-79
2024/02/12 08:58:05;;;;;;;;;;;8.30;99.90;;;;;;5034873;28;20369;-80
2024/02/12 09:00:33;;;;;;;;;;;8.40;99.90;;;;;;5050543;28;20333;-80
2024/02/12 09:02:59;;;;;;;;;;;8.40;99.90;;;;;;5026838;28;20075;-79
2024/02/12 09:05:27;;;;;;;;;;;8.50;99.90;;;;;;5034006;28;19917;-80
2024/02/12 09:08:42;;;;;;;;;;;;;;;;;;;;;
2024/02/12 09:11:19;;;;;;;;;;;8.50;99.90;;;;;;5055239;28;19923;-80
2024/02/12 09:13:50;;;;;;;;;;;8.60;99.90;;;;;;5053213;28;19923;-79
2024/02/12 09:16:36;;;;;;;;;;;8.50;99.90;;;;;;5051937;28;19913;-79
2024/02/12 09:19:03;;;;;;;;;;;8.60;99.90;;;;;;5035774;28;19924;-79
2024/02/12 09:21:31;;;;;;;;;;;8.60;99.90;;;;;;5050365;28;19949;-80
2024/02/12 09:23:57;;;;;;;;;;;8.60;99.90;;;;;;5047227;28;19917;-79
2024/02/12 09:26:24;;;;;;;;;;;8.60;99.90;;;;;;5028253;28;19922;-80
2024/02/12 09:28:50;;;;;;;;;;;8.70;99.90;;;;;;5027726;28;19913;-79
2024/02/12 09:31:15;;;;;;;;;;;8.70;99.90;;;;;;5041290;28;20007;-80
2024/02/12 09:33:43;;;;;;;;;;;8.80;99.90;;;;;;5038834;28;20344;-80
2024/02/12 09:39:12;;;;;;;;;;;8.90;99.90;;;;;;4811090;28;19955;-77
2024/02/12 09:41:44;;;;;;;;;;;9.00;99.90;;;;;;5043229;28;20028;-79
2024/02/12 09:44:10;;;;;;;;;;;9.00;99.90;;;;;;5033342;28;19944;-80
2024/02/12 09:46:36;;;;;;;;;;;9.00;99.90;;;;;;5046753;28;19917;-79
2024/02/12 09:49:03;;;;;;;;;;;8.90;99.90;;;;;;5031927;28;20684;-80
2024/02/12 09:51:29;;;;;;;;;;;9.00;99.90;;;;;;5038131;28;19971;-79
2024/02/12 09:53:55;;;;;;;;;;;9.00;99.90;;;;;;5053364;28;19921;-79
2024/02/12 09:56:39;;;;;;;;;;;8.90;99.90;;;;;;5266791;23;20331;-78
2024/02/12 09:59:05;;;;;;;;;;;8.90;99.90;;;;;;5061061;28;19925;-75
2024/02/12 10:01:31;;;;;;;;;;;8.80;99.90;;;;;;5052617;28;19923;-78
2024/02/12 10:03:58;;;;;;;;;;;8.80;99.90;;;;;;5042067;28;20479;-76
2024/02/12 10:06:23;;;;;;;;;;;8.80;99.90;;;;;;5072975;28;19924;-77
2024/02/12 10:08:49;;;;;;;;;;;8.80;99.90;;;;;;5075738;28;19997;-78
2024/02/12 10:11:20;;;;;;;;;;;8.80;99.90;;;;;;5043260;28;19995;-78
2024/02/12 10:13:52;;;;;;;;;;;8.80;99.90;;;;;;5037898;28;20023;-78
2024/02/12 10:16:19;;;;;;;;;;;8.70;99.90;;;;;;5053468;28;19921;-79
2024/02/12 10:18:45;;;;;;;;;;;8.70;99.90;;;;;;5038221;28;20547;-78
2024/02/12 10:21:11;;;;;;;;;;;8.70;99.90;;;;;;5057369;28;19913;-78
2024/02/12 10:23:36;;;;;;;;;;;8.70;99.90;;;;;;5066673;28;19916;-78
2024/02/12 10:26:02;;;;;;;;;;;8.70;99.90;;;;;;5059583;28;19947;-79
2024/02/12 10:28:28;;;;;;;;;;;8.80;99.90;;;;;;5059262;28;19923;-78
2024/02/12 10:30:54;;;;;;;;;;;8.80;99.90;;;;;;5043017;28;20011;-77
2024/02/12 10:33:23;;;;;;;;;;;8.80;99.90;;;;;;5075461;28;19989;-77
2024/02/12 10:35:50;;;;;;;;;;;8.80;99.90;;;;;;5058598;28;19977;-76
2024/02/12 10:38:16;;;;;;;;;;;8.70;99.90;;;;;;5058421;28;19920;-76
2024/02/12 10:40:51;;;;;;;;;;;8.80;99.90;;;;;;5074413;28;19912;-77
2024/02/12 10:43:17;;;;;;;;;;;8.70;99.90;;;;;;5074991;28;19920;-76
2024/02/12 10:45:48;;;;;;;;;;;8.70;99.90;;;;;;5037953;28;20007;-75
2024/02/12 10:48:15;;;;;;;;;;;8.70;99.90;;;;;;5040898;28;19916;-77
2024/02/12 10:50:45;;;;;;;;;;;8.60;99.90;;;;;;5041675;28;19955;-77
2024/02/12 10:53:12;;;;;;;;;;;8.70;99.90;;;;;;5064427;28;20012;-77
2024/02/12 10:55:37;;;;;;;;;;;8.70;99.90;;;;;;5045280;28;19928;-77
2024/02/12 10:58:04;;;;;;;;;;;8.70;99.90;;;;;;5058726;28;19924;-77
2024/02/12 11:00:32;;;;;;;;;;;8.70;99.90;;;;;;5075978;28;20073;-78
2024/02/12 11:03:00;;;;;;;;;;;8.70;99.90;;;;;;5076561;28;19931;-77
2024/02/12 11:05:27;;;;;;;;;;;8.80;99.90;;;;;;5041737;28;20423;-76
2024/02/12 11:08:05;;;;;;;;;;;8.60;99.90;;;;;;5038082;28;19916;-77
2024/02/12 11:10:31;;;;;;;;;;;8.70;99.90;;;;;;5073830;28;19973;-76
2024/02/12 11:13:00;;;;;;;;;;;8.80;99.90;;;;;;5059002;28;19928;-77
2024/02/12 11:15:26;;;;;;;;;;;8.90;99.90;;;;;;5047244;28;19913;-78
2024/02/12 11:17:53;;;;;;;;;;;8.90;99.90;;;;;;5042106;28;19917;-76
2024/02/12 11:20:20;;;;;;;;;;;8.90;99.90;;;;;;5075866;28;19920;-77
2024/02/12 11:22:46;;;;;;;;;;;9.00;99.90;;;;;;5042004;28;19912;-77
2024/02/12 11:25:18;;;;;;;;;;;9.10;99.90;;;;;;5058731;28;19917;-76
2024/02/12 11:27:57;;;;;;;;;;;9.30;99.90;;;;;;5075652;28;19935;-77
2024/02/12 11:30:23;;;;;;;;;;;9.30;99.90;;;;;;5065206;28;19925;-77
2024/02/12 11:32:49;;;;;;;;;;;9.40;99.90;;;;;;5056178;28;20252;-77
2024/02/12 11:35:15;;;;;;;;;;;9.60;99.90;;;;;;5074915;28;19913;-75
2024/02/12 11:37:43;;;;;;;;;;;9.80;99.90;;;;;;5044883;28;19943;-77
2024/02/12 11:40:15;;;;;;;;;;;9.70;99.90;;;;;;5055072;28;19917;-76
2024/02/12 11:42:49;;;;;;;;;;;9.70;99.90;;;;;;5058483;28;20218;-76
2024/02/12 11:45:20;;;;;;;;;;;9.60;99.90;;;;;;5057470;28;20333;-77
2024/02/12 11:47:46;;;;;;;;;;;9.50;99.90;;;;;;5041179;28;19916;-78
2024/02/12 11:50:18;;;;;;;;;;;9.40;99.90;;;;;;5048624;28;19916;-77
2024/02/12 11:52:45;;;;;;;;;;;9.40;99.90;;;;;;5070368;28;19916;-78
2024/02/12 11:55:12;;;;;;;;;;;9.20;99.90;;;;;;5058304;28;20374;-76
2024/02/12 11:57:38;;;;;;;;;;;9.20;99.90;;;;;;5037824;28;19960;-77
2024/02/12 12:00:16;;;;;;;;;;;9.30;99.90;;;;;;5057017;28;19920;-76
2024/02/12 12:02:50;;;;;;;;;;;9.40;99.90;;;;;;5058058;28;19994;-77
2024/02/12 12:05:20;;;;;;;;;;;9.30;99.90;;;;;;5070825;28;19916;-77
2024/02/12 12:07:47;;;;;;;;;;;9.30;99.90;;;;;;5026887;28;20496;-76
2024/02/12 12:10:21;;;;;;;;;;;9.40;99.90;;;;;;5034584;28;19916;-76
2024/02/12 12:12:48;;;;;;;;;;;9.50;99.90;;;;;;5049174;28;19951;-80
2024/02/12 12:15:13;;;;;;;;;;;9.50;99.90;;;;;;5065743;28;19907;-80
2024/02/12 12:17:39;;;;;;;;;;;9.60;99.90;;;;;;5093046;28;19901;-79
2024/02/12 12:20:17;;;;;;;;;;;9.60;99.90;;;;;;5062686;28;19939;-79
2024/02/12 12:22:47;;;;;;;;;;;9.70;99.90;;;;;;5079514;28;19920;-80
2024/02/12 12:25:14;;;;;;;;;;;9.80;99.90;;;;;;5062832;28;19908;-79
2024/02/12 12:27:41;;;;;;;;;;;9.70;99.90;;;;;;5062610;28;19923;-80
2024/02/12 12:30:14;;;;;;;;;;;9.70;99.90;;;;;;5078344;28;19931;-79
2024/02/12 12:32:41;;;;;;;;;;;9.80;99.90;;;;;;5079267;28;19901;-80
2024/02/12 12:35:07;;;;;;;;;;;9.90;99.90;;;;;;5063281;28;19920;-81
2024/02/12 12:37:36;;;;;;;;;;;9.90;99.90;;;;;;5061944;28;19923;-81
2024/02/12 12:40:08;;;;;;;;;;;9.90;99.90;;;;;;5064632;28;19909;-82
2024/02/12 12:42:37;;;;;;;;;;;9.90;99.90;;;;;;5081804;28;19905;-80
2024/02/12 12:45:03;;;;;;;;;;;10.00;99.90;;;;;;5065930;28;19929;-79
2024/02/12 12:47:36;;;;;;;;;;;10.10;99.90;;;;;;5082995;28;19923;-80
2024/02/12 12:50:04;;;;;;;;;;;10.30;99.90;;;;;;5099091;28;19908;-79
2024/02/12 12:52:30;;;;;;;;;;;10.50;99.90;;;;;;5065844;28;19901;-81
2024/02/12 12:55:03;;;;;;;;;;;11.10;99.90;;;;;;5082649;28;19932;-80
2024/02/12 12:57:32;;;;;;;;;;;10.90;99.90;;;;;;5065530;28;19949;-79
2024/02/12 13:00:18;;;;;;;;;;;10.70;99.90;;;;;;5097563;28;19915;-81
2024/02/12 13:02:55;;;;;;;;;;;10.50;99.90;;;;;;5098917;28;19947;-80
2024/02/12 13:05:34;;;;;;;;;;;10.30;99.90;;;;;;5067354;28;19928;-80
2024/02/12 13:08:03;;;;;;;;;;;10.20;99.90;;;;;;5097499;28;19909;-81
2024/02/12 13:10:51;;;;;;;;;;;10.10;99.90;;;;;;5098520;28;19943;-81
2024/02/12 13:13:27;;;;;;;;;;;10.00;99.90;;;;;;5066817;28;19900;-82
2024/02/12 13:16:05;;;;;;;;;;;10.10;99.90;;;;;;5098649;28;19907;-80
2024/02/12 13:18:36;;;;;;;;;;;10.10;99.90;;;;;;5068232;28;19932;-77
2024/02/12 13:21:02;;;;;;;;;;;10.00;99.90;;;;;;5072422;28;19940;-76
2024/02/12 13:23:28;;;;;;;;;;;9.90;99.90;;;;;;5055628;28;19931;-76
2024/02/12 13:25:54;;;;;;;;;;;9.90;99.90;;;;;;5039672;28;19943;-76
2024/02/12 13:28:42;;;;;;;;;;;9.80;99.90;;;;;;5041254;28;20501;-77
2024/02/12 13:31:08;;;;;;;;;;;9.80;99.90;;;;;;5076441;28;19928;-77
2024/02/12 13:33:34;;;;;;;;;;;9.70;99.90;;;;;;5060054;28;19913;-78
2024/02/12 13:36:03;;;;;;;;;;;9.60;99.90;;;;;;5058076;28;19942;-77
2024/02/12 13:38:31;;;;;;;;;;;9.50;99.90;;;;;;5075876;28;19920;-77
2024/02/12 13:41:10;;;;;;;;;;;9.50;99.90;;;;;;5076649;28;20462;-77
2024/02/12 13:43:36;;;;;;;;;;;9.50;99.90;;;;;;5059387;28;20340;-76
2024/02/12 13:46:05;;;;;;;;;;;9.50;99.90;;;;;;5058849;28;19923;-75
2024/02/12 13:48:32;;;;;;;;;;;9.50;99.90;;;;;;5043496;28;19912;-76
2024/02/12 13:50:58;;;;;;;;;;;9.50;99.90;;;;;;5055732;28;19932;-78
2024/02/12 13:53:24;;;;;;;;;;;9.40;99.90;;;;;;5039692;28;19917;-76
2024/02/12 13:55:52;;;;;;;;;;;9.40;99.90;;;;;;5022987;28;19924;-77
2024/02/12 13:58:21;;;;;;;;;;;9.50;99.90;;;;;;5044427;28;19920;-76
2024/02/12 14:01:07;;;;;;;;;;;9.50;99.90;;;;;;5061560;28;20283;-77
2024/02/12 14:03:32;;;;;;;;;;;9.50;99.90;;;;;;5076072;28;20021;-77
2024/02/12 14:06:00;;;;;;;;;;;9.50;99.90;;;;;;5076361;28;20316;-78
2024/02/12 14:08:31;;;;;;;;;;;9.40;99.90;;;;;;5061179;28;19916;-76
2024/02/12 14:10:59;;;;;;;;;;;9.40;99.90;;;;;;5072683;28;19924;-76
2024/02/12 14:13:29;;;;;;;;;;;9.40;99.90;;;;;;5064504;28;20536;-78
2024/02/12 14:15:55;;;;;;;;;;;9.40;99.90;;;;;;5067731;28;19952;-76
2024/02/12 14:18:22;;;;;;;;;;;9.40;99.90;;;;;;5055089;28;19994;-76
2024/02/12 14:20:47;;;;;;;;;;;9.40;99.90;;;;;;5059981;28;19921;-76
2024/02/12 14:23:13;;;;;;;;;;;9.30;99.90;;;;;;5063749;28;19946;-75
2024/02/12 14:25:40;;;;;;;;;;;9.30;99.90;;;;;;5071991;28;20239;-78
2024/02/12 14:28:13;;;;;;;;;;;9.20;99.90;;;;;;5056340;28;19916;-77
2024/02/12 14:30:39;;;;;;;;;;;9.20;99.90;;;;;;5073310;28;20384;-76
2024/02/12 14:33:06;;;;;;;;;;;9.10;99.90;;;;;;5053271;28;20031;-76
2024/02/12 14:35:38;;;;;;;;;;;8.80;99.90;;;;;;5059502;28;19952;-77
2024/02/12 14:38:06;;;;;;;;;;;8.90;99.90;;;;;;5056661;28;19923;-77
2024/02/12 14:40:31;;;;;;;;;;;8.80;99.90;;;;;;5048817;28;19931;-78
2024/02/12 14:43:01;;;;;;;;;;;8.80;99.90;;;;;;5072108;28;20017;-79
2024/02/12 14:45:28;;;;;;;;;;;8.80;99.90;;;;;;5052791;28;19920;-78
2024/02/12 14:48:03;;;;;;;;;;;8.70;99.90;;;;;;5071731;28;19916;-79
2024/02/12 14:50:32;;;;;;;;;;;8.80;99.90;;;;;;5056331;28;19912;-77
2024/02/12 14:52:59;;;;;;;;;;;8.80;99.90;;;;;;5055832;28;19920;-77
2024/02/12 14:55:26;;;;;;;;;;;8.50;99.90;;;;;;5038023;28;20322;-77
2024/02/12 14:57:57;;;;;;;;;;;8.50;99.90;;;;;;5055450;28;20409;-77
2024/02/12 15:00:25;;;;;;;;;;;8.30;99.90;;;;;;5055571;28;19920;-77
2024/02/12 15:02:53;;;;;;;;;;;8.20;99.90;;;;;;5056211;28;19917;-77
2024/02/12 15:05:19;;;;;;;;;;;8.20;99.90;;;;;;5055253;28;19928;-78
2024/02/12 15:07:49;;;;;;;;;;;8.30;99.90;;;;;;5053371;28;19917;-77